Portada
METAR-TAF:

METAR-TAF

Aeropuertos :

Aeropuerto de Madrid-Barajas

Madrid, España

latitud: 40-27N, longitud: 003-33W, altitud: 609 m

Observación

El informe se hizo hace 28 minutos, a las 03:30 UTC
Viento 3 kt del norte-noroeste, variando entre noroeste y norte
Temperatura 19°C
Humedad 60%
Presión 1019 hPa
Visibilidad 10 km o más
sin nubes por debajo de 1500 m y sin presencia de cumulonimbus.

METAR: LEMD 220330Z 34003KT 310V010 CAVOK 19/11 Q1019 NOSIG

Hora: 05:58 (03:58 UTC)

Pronóstico

El informe se hizo hace 4 horas y 58 minutos, a las 23:00 UTC
Pronóstico válido del 22 a las 00 UTC al 23 a las 06 UTC
Viento 9 kt del norte-noreste
Visibilidad 10 km o más
sin nubes por debajo de 1500 m y sin presencia de cumulonimbus.
Probabilidad 40% :
Temporalmente
del 22 a las 10 UTC al 22 a las 18 UTC
Viento 5 kt del sur con ráfagas de 15 kt

TAF: LEMD 212300Z 2200/2306 02009KT CAVOK TX34/2215Z TN18/2205Z PROB40 TEMPO 2210/2218 18005G15KT

Observaciones y pronósticos meteorológicos de más de 4000 aeropuertos (mensajes METAR y TAF).

Los puntos amarillos y rojos representan las estaciones disponibles.

Ponga el ratón en el punto deseado para ver el nombre de la estación.

Haga clic para ver las observaciones y los pronósticos meteorológicos.

Para cambiar el mapa : haga clic en los botones verdes con una cruz de color negro para hacer un zoom, en el botón verde con un guión para alejar o en las flechas verdes para mapas adyacentes.


METAR-TAF: